createdAt,value
2023-03-29T00:01:11.253Z,75.00
2023-03-29T00:04:16.776Z,74.73
2023-03-29T00:07:05.787Z,75.00
2023-03-29T00:09:37.228Z,74.50
2023-03-29T00:12:07.461Z,75.00
2023-03-29T00:14:37.451Z,75.07
2023-03-29T00:17:08.492Z,74.78
2023-03-29T00:19:37.762Z,74.79
2023-03-29T00:22:30.570Z,74.75
2023-03-29T00:28:05.640Z,75.29
2023-03-29T00:30:35.533Z,75.36
2023-03-29T00:33:39.539Z,75.44
2023-03-29T00:36:40.709Z,75.43
2023-03-29T00:39:11.353Z,75.26
2023-03-29T00:41:57.487Z,75.55
2023-03-29T00:45:36.603Z,75.59
2023-03-29T00:48:19.461Z,75.37
2023-03-29T00:50:56.184Z,75.19
2023-03-29T00:53:36.100Z,75.36
2023-03-29T00:56:41.859Z,75.64
2023-03-29T00:59:16.125Z,75.33
2023-03-29T01:01:55.230Z,75.79
2023-03-29T01:04:52.942Z,75.57
2023-03-29T01:07:39.544Z,75.87
2023-03-29T01:10:14.686Z,75.86
2023-03-29T01:12:50.092Z,75.42
2023-03-29T01:15:26.515Z,75.88
2023-03-29T01:18:16.744Z,76.15
2023-03-29T01:21:30.617Z,75.71
2023-03-29T01:24:39.474Z,75.95
2023-03-29T01:30:43.887Z,75.48
2023-03-29T01:33:54.244Z,75.34
2023-03-29T01:36:35.368Z,75.84
2023-03-29T01:39:07.624Z,75.62
2023-03-29T01:41:53.708Z,75.24
2023-03-29T01:44:37.254Z,76.03
2023-03-29T01:47:17.568Z,76.44
2023-03-29T01:50:01.303Z,76.14
2023-03-29T01:52:37.444Z,76.23
2023-03-29T01:55:13.774Z,75.67
2023-03-29T01:57:48.085Z,75.74
2023-03-29T02:00:36.491Z,75.41
2023-03-29T02:03:31.401Z,75.86
2023-03-29T02:06:06.008Z,75.61
2023-03-29T02:08:35.943Z,76.43
2023-03-29T02:11:26.751Z,76.65
2023-03-29T02:14:33.987Z,76.21
2023-03-29T02:17:18.575Z,76.26
2023-03-29T02:19:58.646Z,76.15
2023-03-29T02:22:57.564Z,75.94
2023-03-29T02:25:46.020Z,76.14
2023-03-29T02:28:23.735Z,76.50
2023-03-29T02:31:09.031Z,76.95
2023-03-29T02:33:52.576Z,76.30
2023-03-29T02:36:39.234Z,76.29
2023-03-29T02:39:14.186Z,76.10
2023-03-29T02:41:48.886Z,76.75
2023-03-29T02:44:39.044Z,76.27
2023-03-29T02:47:17.652Z,76.16
2023-03-29T02:49:50.030Z,76.27
2023-03-29T02:52:33.759Z,76.78
2023-03-29T02:55:06.699Z,76.78
2023-03-29T02:57:39.829Z,76.65
2023-03-29T03:01:11.992Z,76.36
2023-03-29T03:03:43.563Z,76.63
2023-03-29T03:06:19.018Z,76.75
2023-03-29T03:08:54.389Z,76.39
2023-03-29T03:11:30.198Z,76.80
2023-03-29T03:14:01.581Z,76.27
2023-03-29T03:17:11.836Z,76.14
2023-03-29T03:19:43.666Z,76.86
2023-03-29T03:22:15.096Z,76.13
2023-03-29T03:24:46.470Z,75.85
2023-03-29T03:27:16.689Z,76.36
2023-03-29T03:29:57.723Z,76.20
2023-03-29T03:33:01.671Z,76.74
2023-03-29T03:36:06.186Z,75.90
2023-03-29T03:38:43.217Z,75.99
2023-03-29T03:41:13.777Z,75.97
2023-03-29T03:43:46.436Z,76.63
2023-03-29T03:46:16.875Z,76.04
2023-03-29T03:48:47.373Z,76.65
2023-03-29T03:51:16.598Z,76.33
2023-03-29T03:54:01.401Z,76.21
2023-03-29T03:56:50.076Z,76.04
2023-03-29T03:59:20.551Z,76.88
2023-03-29T04:01:49.679Z,76.17
2023-03-29T04:04:19.997Z,76.43
2023-03-29T04:07:04.579Z,75.87
2023-03-29T04:09:41.370Z,75.92
2023-03-29T04:12:13.396Z,76.72
2023-03-29T04:14:43.010Z,76.62
2023-03-29T04:17:15.864Z,76.34
2023-03-29T04:19:48.141Z,76.82
2023-03-29T04:22:18.382Z,76.55
2023-03-29T04:24:49.142Z,76.14
2023-03-29T04:28:10.604Z,76.71
2023-03-29T04:30:42.453Z,75.99
2023-03-29T04:33:12.234Z,75.90
2023-03-29T04:35:43.894Z,76.75
2023-03-29T04:38:13.192Z,76.33
2023-03-29T04:40:44.240Z,76.11
2023-03-29T04:43:15.760Z,76.18
2023-03-29T04:45:45.005Z,76.14
2023-03-29T04:48:13.860Z,76.89
2023-03-29T04:51:04.082Z,76.56
2023-03-29T04:54:39.860Z,76.19
2023-03-29T04:57:11.651Z,76.35
2023-03-29T04:59:43.367Z,75.92
2023-03-29T05:02:14.303Z,76.57
2023-03-29T05:04:44.818Z,76.11
2023-03-29T05:07:35.749Z,76.85
2023-03-29T05:10:31.743Z,76.73
2023-03-29T05:13:04.992Z,76.80
2023-03-29T05:15:36.379Z,76.39
2023-03-29T05:18:27.493Z,76.74
2023-03-29T05:21:02.489Z,76.52
2023-03-29T05:23:32.359Z,76.80
2023-03-29T05:26:36.904Z,77.28
2023-03-29T05:29:44.527Z,76.87
2023-03-29T05:32:19.048Z,76.84
2023-03-29T05:35:10.794Z,76.15
2023-03-29T05:38:10.217Z,77.29
2023-03-29T05:40:41.648Z,77.00
2023-03-29T05:43:11.360Z,76.79
2023-03-29T05:45:42.529Z,77.45
2023-03-29T05:48:14.035Z,77.03
2023-03-29T05:50:46.255Z,77.99
2023-03-29T05:53:16.375Z,77.36
2023-03-29T05:55:53.843Z,77.21
2023-03-29T05:58:31.288Z,77.81
2023-03-29T06:01:26.386Z,77.02
2023-03-29T06:04:03.929Z,77.78
2023-03-29T06:06:33.059Z,77.58
2023-03-29T06:09:37.185Z,77.90
2023-03-29T06:12:07.754Z,78.09
2023-03-29T06:14:37.691Z,78.06
2023-03-29T06:17:16.814Z,78.26
2023-03-29T06:19:47.856Z,77.75
2023-03-29T06:22:16.959Z,78.44
2023-03-29T06:24:46.467Z,78.38
2023-03-29T06:27:15.969Z,79.23
2023-03-29T06:29:45.579Z,78.66
2023-03-29T06:32:22.239Z,79.86
2023-03-29T06:34:55.973Z,79.26
2023-03-29T06:37:49.877Z,79.16
2023-03-29T06:40:48.532Z,79.96
2023-03-29T06:43:18.173Z,79.17
2023-03-29T06:45:47.522Z,79.34
2023-03-29T06:48:18.152Z,79.75
2023-03-29T06:50:50.058Z,79.59
2023-03-29T06:53:43.684Z,80.24
2023-03-29T06:56:14.904Z,80.36
2023-03-29T06:58:45.472Z,81.13
2023-03-29T07:01:15.751Z,80.83
2023-03-29T07:03:46.800Z,81.59
2023-03-29T07:06:22.220Z,81.39
2023-03-29T07:08:52.917Z,81.69
2023-03-29T07:11:41.813Z,81.31
2023-03-29T07:14:12.527Z,81.64
2023-03-29T07:16:42.745Z,81.76
2023-03-29T07:19:36.083Z,81.29
2023-03-29T07:22:08.619Z,82.07
2023-03-29T07:24:38.589Z,81.68
2023-03-29T07:27:42.015Z,82.54
2023-03-29T07:30:17.082Z,81.94
2023-03-29T07:32:48.503Z,81.84
2023-03-29T07:35:37.020Z,82.24
2023-03-29T07:38:10.271Z,82.14
2023-03-29T07:40:41.233Z,82.45
2023-03-29T07:43:42.623Z,81.86
2023-03-29T07:46:13.913Z,82.09
2023-03-29T07:48:45.922Z,82.13
2023-03-29T07:51:24.446Z,81.85
2023-03-29T07:54:00.408Z,82.41
2023-03-29T07:56:32.765Z,81.88
2023-03-29T07:59:19.737Z,81.23
2023-03-29T08:01:52.131Z,81.71
2023-03-29T08:04:22.987Z,81.72
2023-03-29T08:06:59.084Z,81.26
2023-03-29T08:09:35.540Z,81.71
2023-03-29T08:12:09.835Z,81.49
2023-03-29T08:14:38.628Z,81.43
2023-03-29T08:17:07.310Z,81.15
2023-03-29T08:19:35.884Z,81.24
2023-03-29T08:22:05.153Z,80.37
2023-03-29T08:24:35.086Z,80.08
2023-03-29T08:27:04.309Z,80.03
2023-03-29T08:29:32.693Z,80.33
2023-03-29T08:32:02.212Z,80.35
2023-03-29T08:34:31.920Z,79.75
2023-03-29T08:37:00.800Z,79.89
2023-03-29T08:39:30.044Z,79.53
2023-03-29T08:42:16.382Z,79.13
2023-03-29T08:45:00.346Z,78.84
2023-03-29T08:47:40.249Z,78.57
2023-03-29T08:50:12.364Z,77.88
2023-03-29T08:52:44.403Z,77.66
2023-03-29T08:55:26.205Z,77.17
2023-03-29T08:57:57.563Z,76.42
2023-03-29T09:00:35.618Z,76.50
2023-03-29T09:03:11.466Z,76.47
2023-03-29T09:05:46.159Z,75.91
2023-03-29T09:08:17.821Z,75.36
2023-03-29T09:10:50.153Z,74.96
2023-03-29T09:13:42.527Z,75.16
2023-03-29T09:16:22.058Z,74.67
2023-03-29T09:19:11.198Z,74.88
2023-03-29T09:21:46.688Z,74.95
2023-03-29T09:24:34.759Z,74.56
2023-03-29T09:27:11.039Z,73.40
2023-03-29T09:29:56.641Z,73.84
2023-03-29T09:32:33.056Z,73.42
2023-03-29T09:35:18.313Z,73.25
2023-03-29T09:37:49.501Z,72.62
2023-03-29T09:40:23.591Z,72.67
2023-03-29T09:42:56.109Z,72.75
2023-03-29T09:45:26.398Z,72.48
2023-03-29T09:48:01.379Z,71.78
2023-03-29T09:50:35.474Z,71.11
2023-03-29T09:53:05.108Z,71.20
2023-03-29T09:55:36.502Z,70.72
2023-03-29T09:58:15.861Z,70.51
2023-03-29T10:00:46.344Z,70.46
2023-03-29T10:03:21.435Z,70.33
2023-03-29T10:05:53.285Z,69.91
2023-03-29T10:08:28.219Z,70.22
2023-03-29T10:10:59.704Z,70.14
2023-03-29T10:13:32.648Z,69.80
2023-03-29T10:16:09.280Z,69.89
2023-03-29T10:18:43.177Z,69.78
2023-03-29T10:21:16.734Z,69.22
2023-03-29T10:23:45.441Z,68.52
2023-03-29T10:26:26.803Z,68.59
2023-03-29T10:28:57.373Z,68.30
2023-03-29T10:31:30.264Z,67.68
2023-03-29T10:34:03.902Z,67.76
2023-03-29T10:36:32.697Z,67.53
2023-03-29T10:39:05.755Z,67.42
2023-03-29T10:41:36.461Z,67.19
2023-03-29T10:44:05.611Z,67.39
2023-03-29T10:46:43.344Z,68.10
2023-03-29T10:49:22.182Z,66.87
2023-03-29T10:51:51.928Z,67.08
2023-03-29T10:54:25.035Z,66.98
2023-03-29T10:56:57.865Z,66.80
2023-03-29T10:59:30.873Z,66.97
2023-03-29T11:02:51.899Z,66.12
2023-03-29T11:05:29.453Z,66.33
2023-03-29T11:08:32.712Z,65.69
2023-03-29T11:11:13.369Z,65.86
2023-03-29T11:13:52.632Z,65.71
2023-03-29T11:16:32.377Z,65.83
2023-03-29T11:19:26.599Z,65.15
2023-03-29T11:22:03.114Z,64.51
2023-03-29T11:24:50.700Z,64.28
2023-03-29T11:27:30.977Z,63.47
2023-03-29T11:30:10.057Z,63.18
2023-03-29T11:32:53.318Z,62.70
2023-03-29T11:35:46.715Z,61.86
2023-03-29T11:38:25.098Z,61.42
2023-03-29T11:41:02.230Z,61.08
2023-03-29T11:43:37.016Z,61.18
2023-03-29T11:46:13.411Z,60.45
2023-03-29T11:48:49.467Z,60.44
2023-03-29T11:51:26.344Z,60.36
2023-03-29T11:54:04.422Z,59.88
2023-03-29T11:56:39.242Z,59.79
2023-03-29T11:59:17.047Z,59.06
2023-03-29T12:01:50.113Z,58.93
2023-03-29T12:04:28.509Z,59.04
2023-03-29T12:07:10.761Z,58.89
2023-03-29T12:09:42.964Z,59.13
2023-03-29T12:12:18.490Z,58.84
2023-03-29T12:14:58.319Z,59.07
2023-03-29T12:17:33.042Z,58.61
2023-03-29T12:20:16.838Z,58.93
2023-03-29T12:22:49.106Z,58.87
2023-03-29T12:25:23.223Z,58.47
2023-03-29T12:28:08.175Z,58.71
2023-03-29T12:30:52.525Z,58.96
2023-03-29T12:34:04.941Z,57.94
2023-03-29T12:37:02.092Z,57.43
2023-03-29T12:39:33.416Z,56.64
2023-03-29T12:42:18.321Z,56.03
2023-03-29T12:44:51.006Z,55.53
2023-03-29T12:47:25.069Z,55.61
2023-03-29T12:49:57.419Z,54.79
2023-03-29T12:52:31.847Z,55.24
2023-03-29T12:55:05.630Z,54.99
2023-03-29T12:57:43.200Z,54.82
2023-03-29T13:00:22.278Z,54.31
2023-03-29T13:03:03.022Z,54.77
2023-03-29T13:05:36.363Z,54.52
2023-03-29T13:08:29.328Z,54.40
2023-03-29T13:11:00.104Z,54.18
2023-03-29T13:13:32.159Z,54.41
2023-03-29T13:16:15.936Z,54.80
2023-03-29T13:19:28.543Z,54.55
2023-03-29T13:22:12.109Z,54.77
2023-03-29T13:25:06.240Z,54.75
2023-03-29T13:27:46.750Z,54.88
2023-03-29T13:30:35.884Z,55.43
2023-03-29T13:33:23.622Z,55.95
2023-03-29T13:36:01.986Z,56.32
2023-03-29T13:38:33.281Z,56.72
2023-03-29T13:41:05.510Z,57.01
2023-03-29T13:43:53.886Z,57.08
2023-03-29T13:46:27.513Z,56.91
2023-03-29T13:49:03.682Z,57.02
2023-03-29T13:52:04.132Z,57.21
2023-03-29T13:54:37.678Z,56.91
2023-03-29T13:57:15.496Z,56.64
2023-03-29T13:59:57.658Z,56.94
2023-03-29T14:02:42.957Z,57.08
2023-03-29T14:05:16.497Z,57.17
2023-03-29T14:07:51.373Z,57.00
2023-03-29T14:10:25.178Z,56.63
2023-03-29T14:12:57.938Z,56.39
2023-03-29T14:15:42.807Z,56.64
2023-03-29T14:18:13.204Z,56.54
2023-03-29T14:20:46.410Z,56.32
2023-03-29T14:23:21.351Z,56.23
2023-03-29T14:25:53.051Z,55.82
2023-03-29T14:28:26.419Z,55.58
2023-03-29T14:30:57.825Z,55.52
2023-03-29T14:33:28.952Z,55.26
2023-03-29T14:36:00.919Z,54.62
2023-03-29T14:38:31.474Z,54.89
2023-03-29T14:41:02.382Z,54.59
2023-03-29T14:43:32.673Z,54.50
2023-03-29T14:46:06.647Z,53.67
2023-03-29T14:48:36.066Z,54.33
2023-03-29T14:51:06.090Z,54.75
2023-03-29T14:53:37.126Z,54.65
2023-03-29T14:56:07.080Z,55.39
2023-03-29T14:58:37.195Z,55.88
2023-03-29T15:01:15.752Z,55.70
2023-03-29T15:03:46.239Z,56.37
2023-03-29T15:06:15.843Z,56.64
2023-03-29T15:09:01.531Z,56.34
2023-03-29T15:11:34.141Z,56.64
2023-03-29T15:14:06.657Z,56.13
2023-03-29T15:16:40.861Z,56.23
2023-03-29T15:19:17.133Z,56.52
2023-03-29T15:21:47.951Z,56.42
2023-03-29T15:24:25.147Z,56.85
2023-03-29T15:27:03.549Z,57.51
2023-03-29T15:29:42.233Z,57.94
2023-03-29T15:32:22.673Z,57.43
2023-03-29T15:35:06.274Z,57.13
2023-03-29T15:37:35.140Z,57.01
2023-03-29T15:40:10.014Z,57.39
2023-03-29T15:42:39.478Z,58.10
2023-03-29T15:45:14.440Z,58.22
2023-03-29T15:47:44.241Z,58.35
2023-03-29T15:50:12.826Z,58.92
2023-03-29T15:52:41.616Z,59.40
2023-03-29T15:55:11.608Z,59.57
2023-03-29T15:57:49.440Z,59.81
2023-03-29T16:00:19.433Z,60.19
2023-03-29T16:02:51.326Z,60.48
2023-03-29T16:05:20.294Z,60.93
2023-03-29T16:07:49.132Z,61.89
2023-03-29T16:10:17.824Z,62.53
2023-03-29T16:12:46.631Z,62.92
2023-03-29T16:15:21.293Z,63.44
2023-03-29T16:17:51.244Z,64.16
2023-03-29T16:20:21.146Z,64.75
2023-03-29T16:22:51.544Z,64.95
2023-03-29T16:25:23.516Z,65.52
2023-03-29T16:27:54.329Z,65.88
2023-03-29T16:30:24.977Z,66.82
2023-03-29T16:32:55.235Z,67.16
2023-03-29T16:35:30.223Z,67.86
2023-03-29T16:37:59.437Z,67.96
2023-03-29T16:40:28.218Z,68.41
2023-03-29T16:42:57.490Z,69.02
2023-03-29T16:45:26.625Z,69.15
2023-03-29T16:47:57.572Z,68.94
2023-03-29T16:50:26.632Z,69.26
2023-03-29T16:52:55.332Z,69.87
2023-03-29T16:55:25.175Z,69.97
2023-03-29T16:57:55.242Z,69.97
2023-03-29T17:00:25.098Z,70.38
2023-03-29T17:02:56.679Z,70.70
2023-03-29T17:05:25.397Z,70.70
2023-03-29T17:07:56.194Z,71.08
2023-03-29T17:10:26.655Z,71.79
2023-03-29T17:12:56.166Z,71.68
2023-03-29T17:15:24.978Z,72.89
2023-03-29T17:17:55.348Z,72.72
2023-03-29T17:20:26.750Z,73.52
2023-03-29T17:22:56.249Z,73.60
2023-03-29T17:25:25.157Z,73.96
2023-03-29T17:27:54.131Z,74.31
2023-03-29T17:30:23.900Z,74.60
2023-03-29T17:32:52.590Z,74.67
2023-03-29T17:35:24.911Z,75.33
2023-03-29T17:37:55.190Z,75.69
2023-03-29T17:40:24.033Z,75.53
2023-03-29T17:42:52.788Z,76.07
2023-03-29T17:45:22.445Z,76.15
2023-03-29T17:47:51.303Z,76.87
2023-03-29T17:50:23.557Z,76.63
2023-03-29T17:52:52.400Z,77.05
2023-03-29T17:55:21.561Z,77.51
2023-03-29T17:57:50.096Z,77.75
2023-03-29T18:00:20.121Z,77.98
2023-03-29T18:02:48.884Z,78.29
2023-03-29T18:05:18.055Z,78.51
2023-03-29T18:07:47.883Z,78.47
2023-03-29T18:10:16.422Z,78.66
2023-03-29T18:12:46.340Z,79.09
2023-03-29T18:15:14.942Z,79.05
2023-03-29T18:17:43.739Z,79.92
2023-03-29T18:20:14.063Z,79.96
2023-03-29T18:22:43.462Z,80.32
2023-03-29T18:25:14.642Z,80.48
2023-03-29T18:27:43.401Z,80.64
2023-03-29T18:30:13.955Z,80.54
2023-03-29T18:32:42.718Z,81.06
2023-03-29T18:35:12.249Z,81.08
2023-03-29T18:37:42.936Z,81.60
2023-03-29T18:40:13.793Z,81.82
2023-03-29T18:42:42.783Z,81.84
2023-03-29T18:45:12.821Z,81.68
2023-03-29T18:47:47.667Z,81.95
2023-03-29T18:50:16.286Z,82.01
2023-03-29T18:52:46.042Z,82.83
2023-03-29T18:55:16.326Z,82.95
2023-03-29T18:57:44.698Z,82.58
2023-03-29T19:00:14.166Z,82.88
2023-03-29T19:02:43.278Z,83.21
2023-03-29T19:05:12.137Z,83.27
2023-03-29T19:07:40.985Z,82.96
2023-03-29T19:10:10.687Z,83.23
2023-03-29T19:12:40.597Z,83.28
2023-03-29T19:15:11.473Z,83.47
2023-03-29T19:17:40.813Z,83.49
2023-03-29T19:20:12.213Z,83.49
2023-03-29T19:22:41.106Z,83.65
2023-03-29T19:25:11.185Z,83.88
2023-03-29T19:27:41.637Z,84.09
2023-03-29T19:30:12.981Z,84.14
2023-03-29T19:32:41.566Z,84.56
2023-03-29T19:35:12.783Z,84.34
2023-03-29T19:37:41.644Z,84.96
2023-03-29T19:40:11.243Z,84.91
2023-03-29T19:42:41.923Z,84.35
2023-03-29T19:45:12.472Z,84.92
2023-03-29T19:47:44.004Z,84.95
2023-03-29T19:50:13.971Z,84.64
2023-03-29T19:52:43.065Z,84.72
2023-03-29T19:55:12.221Z,85.22
2023-03-29T19:57:42.590Z,85.17
2023-03-29T20:00:14.181Z,85.51
2023-03-29T20:02:43.251Z,85.16
2023-03-29T20:05:12.604Z,85.60
2023-03-29T20:07:41.052Z,85.51
2023-03-29T20:10:11.191Z,85.38
2023-03-29T20:12:41.418Z,85.54
2023-03-29T20:15:11.855Z,85.55
2023-03-29T20:17:40.980Z,85.61
2023-03-29T20:20:14.084Z,85.58
2023-03-29T20:22:45.720Z,85.88
2023-03-29T20:25:14.235Z,86.19
2023-03-29T20:27:44.183Z,86.22
2023-03-29T20:30:14.515Z,85.91
2023-03-29T20:32:43.010Z,86.32
2023-03-29T20:35:12.151Z,86.29
2023-03-29T20:37:40.496Z,86.43
2023-03-29T20:40:13.927Z,86.62
2023-03-29T20:42:47.046Z,86.30
2023-03-29T20:45:19.351Z,86.61
2023-03-29T20:47:50.531Z,87.02
2023-03-29T20:50:21.114Z,86.67
2023-03-29T20:52:49.580Z,86.48
2023-03-29T20:55:22.302Z,86.50
2023-03-29T20:57:55.311Z,86.96
2023-03-29T21:00:25.179Z,87.19
2023-03-29T21:02:55.319Z,87.10
2023-03-29T21:05:24.718Z,86.72
2023-03-29T21:07:55.528Z,87.05
2023-03-29T21:10:26.614Z,87.30
2023-03-29T21:13:00.416Z,87.37
2023-03-29T21:15:30.817Z,87.31
2023-03-29T21:18:00.034Z,87.17
2023-03-29T21:20:29.077Z,87.23
2023-03-29T21:23:01.855Z,87.37
2023-03-29T21:25:30.344Z,87.56
2023-03-29T21:28:00.636Z,87.58
2023-03-29T21:30:31.838Z,87.81
2023-03-29T21:33:01.090Z,87.66
2023-03-29T21:35:33.358Z,87.73
2023-03-29T21:38:02.253Z,88.00
2023-03-29T21:40:30.663Z,87.68
2023-03-29T21:43:00.642Z,88.08
2023-03-29T21:45:29.342Z,87.43
2023-03-29T21:47:58.644Z,87.85
2023-03-29T21:50:28.239Z,87.90
2023-03-29T21:52:57.844Z,87.70
2023-03-29T21:55:27.789Z,88.01
2023-03-29T21:57:56.469Z,87.89
2023-03-29T22:00:27.741Z,87.93
2023-03-29T22:02:57.165Z,88.13
2023-03-29T22:05:27.469Z,88.09
2023-03-29T22:07:58.786Z,88.24
2023-03-29T22:10:27.932Z,88.01
2023-03-29T22:12:57.093Z,87.46
2023-03-29T22:15:29.416Z,87.90
2023-03-29T22:17:59.835Z,87.97
2023-03-29T22:20:29.454Z,88.25
2023-03-29T22:22:58.210Z,88.18
2023-03-29T22:25:28.288Z,88.35
2023-03-29T22:27:57.016Z,88.34
2023-03-29T22:30:27.716Z,88.02
2023-03-29T22:32:56.781Z,87.93
2023-03-29T22:35:25.246Z,88.25
2023-03-29T22:37:53.847Z,87.97
2023-03-29T22:40:22.523Z,87.98
2023-03-29T22:42:51.271Z,87.92
2023-03-29T22:45:21.129Z,87.97
2023-03-29T22:47:51.173Z,87.91
2023-03-29T22:50:19.864Z,88.45
2023-03-29T22:52:48.485Z,87.87
2023-03-29T22:55:17.093Z,88.07
2023-03-29T22:57:45.877Z,87.89
2023-03-29T23:00:15.030Z,87.85
2023-03-29T23:02:43.620Z,88.05
2023-03-29T23:05:13.557Z,88.06
2023-03-29T23:07:41.967Z,87.95
2023-03-29T23:10:11.774Z,88.22
2023-03-29T23:12:43.001Z,87.71
2023-03-29T23:15:13.592Z,87.92
2023-03-29T23:17:42.118Z,88.01
2023-03-29T23:20:14.056Z,87.94
2023-03-29T23:22:43.164Z,88.27
2023-03-29T23:25:12.030Z,87.96
2023-03-29T23:27:40.484Z,87.92
2023-03-29T23:30:11.827Z,88.00
2023-03-29T23:32:41.117Z,87.76
2023-03-29T23:35:10.744Z,87.86
2023-03-29T23:37:40.630Z,88.01
2023-03-29T23:40:11.704Z,88.43
2023-03-29T23:42:41.373Z,88.33
2023-03-29T23:45:13.419Z,88.13
2023-03-29T23:47:42.624Z,88.20
2023-03-29T23:50:16.320Z,88.54
2023-03-29T23:52:47.226Z,88.59
2023-03-29T23:55:17.493Z,88.74
2023-03-29T23:57:46.419Z,88.06
